createdAt,value
2019-05-03T00:01:52.864Z,54.09
2019-05-03T00:04:22.386Z,54.13
2019-05-03T00:06:52.090Z,54.04
2019-05-03T00:09:22.513Z,54.15
2019-05-03T00:11:52.721Z,54.17
2019-05-03T00:14:21.786Z,54.21
2019-05-03T00:16:52.239Z,54.24
2019-05-03T00:19:21.933Z,54.28
2019-05-03T00:21:52.478Z,54.29
2019-05-03T00:24:22.470Z,54.31
2019-05-03T00:26:51.676Z,54.32
2019-05-03T00:29:21.856Z,54.34
2019-05-03T00:31:51.715Z,54.36
2019-05-03T00:34:26.367Z,54.40
2019-05-03T00:36:58.481Z,54.43
2019-05-03T00:39:34.611Z,54.48
2019-05-03T00:42:04.541Z,54.51
2019-05-03T00:44:32.603Z,54.57
2019-05-03T00:47:02.284Z,54.64
2019-05-03T00:49:32.092Z,54.67
2019-05-03T00:52:02.426Z,54.73
2019-05-03T00:54:31.686Z,54.79
2019-05-03T00:57:00.157Z,54.82
2019-05-03T00:59:29.644Z,54.87
2019-05-03T01:01:57.683Z,54.90
2019-05-03T01:04:25.755Z,54.94
2019-05-03T01:06:53.797Z,54.97
2019-05-03T01:09:25.021Z,55.03
2019-05-03T01:11:53.059Z,55.05
2019-05-03T01:14:22.590Z,55.04
2019-05-03T01:16:52.171Z,55.05
2019-05-03T01:19:22.583Z,55.07
2019-05-03T01:21:51.503Z,55.09
2019-05-03T01:24:21.773Z,55.08
2019-05-03T01:26:52.447Z,55.11
2019-05-03T01:29:22.663Z,55.12
2019-05-03T01:31:52.680Z,55.14
2019-05-03T01:34:21.882Z,55.16
2019-05-03T01:36:51.863Z,55.20
2019-05-03T01:39:22.093Z,55.24
2019-05-03T01:41:51.959Z,55.28
2019-05-03T01:44:22.034Z,55.33
2019-05-03T01:46:52.051Z,55.34
2019-05-03T01:49:34.357Z,55.38
2019-05-03T01:52:09.924Z,55.41
2019-05-03T01:54:38.347Z,55.42
2019-05-03T01:57:06.449Z,55.42
2019-05-03T01:59:34.550Z,55.44
2019-05-03T02:02:20.655Z,55.45
2019-05-03T02:04:55.208Z,55.49
2019-05-03T02:07:23.238Z,55.47
2019-05-03T02:09:51.977Z,55.53
2019-05-03T02:12:22.146Z,55.58
2019-05-03T02:14:52.129Z,55.61
2019-05-03T02:17:20.190Z,55.65
2019-05-03T02:19:48.267Z,55.69
2019-05-03T02:22:18.039Z,55.75
2019-05-03T02:24:47.825Z,55.78
2019-05-03T02:27:15.843Z,55.80
2019-05-03T02:29:44.061Z,55.82
2019-05-03T02:32:13.273Z,55.82
2019-05-03T02:34:43.935Z,55.86
2019-05-03T02:37:13.892Z,55.88
2019-05-03T02:39:42.682Z,55.93
2019-05-03T02:42:11.854Z,55.98
2019-05-03T02:44:40.697Z,56.04
2019-05-03T02:47:28.315Z,56.07
2019-05-03T02:50:00.970Z,56.09
2019-05-03T02:52:36.858Z,56.08
2019-05-03T02:55:09.420Z,56.03
2019-05-03T02:57:37.838Z,56.07
2019-05-03T03:00:09.005Z,56.10
2019-05-03T03:02:38.937Z,56.17
2019-05-03T03:05:08.095Z,56.26
2019-05-03T03:07:40.068Z,56.31
2019-05-03T03:10:08.568Z,56.31
2019-05-03T03:12:40.675Z,56.32
2019-05-03T03:15:08.944Z,56.33
2019-05-03T03:17:41.015Z,56.31
2019-05-03T03:20:09.539Z,56.32
2019-05-03T03:22:45.529Z,56.29
2019-05-03T03:25:26.476Z,56.31
2019-05-03T03:28:01.242Z,56.32
2019-05-03T03:31:28.582Z,56.33
2019-05-03T03:34:02.302Z,56.34
2019-05-03T03:36:54.456Z,56.26
2019-05-03T03:39:07.564Z,56.31
2019-05-03T03:41:35.981Z,56.34
2019-05-03T03:44:05.861Z,56.38
2019-05-03T03:46:35.921Z,56.41
2019-05-03T03:49:07.098Z,56.45
2019-05-03T03:51:39.445Z,56.46
2019-05-03T03:54:15.524Z,56.48
2019-05-03T03:56:59.326Z,56.51
2019-05-03T03:59:22.022Z,56.50
2019-05-03T04:01:51.424Z,56.50
2019-05-03T04:04:19.473Z,56.53
2019-05-03T04:06:49.086Z,56.54
2019-05-03T04:09:17.251Z,56.55
2019-05-03T04:11:46.313Z,56.55
2019-05-03T04:14:19.303Z,56.59
2019-05-03T04:17:15.213Z,56.63
2019-05-03T04:19:45.447Z,56.65
2019-05-03T04:22:16.530Z,56.62
2019-05-03T04:24:45.948Z,56.67
2019-05-03T04:27:23.018Z,56.68
2019-05-03T04:29:47.241Z,56.71
2019-05-03T04:32:15.872Z,56.68
2019-05-03T04:34:45.423Z,56.70
2019-05-03T04:37:16.222Z,56.71
2019-05-03T04:39:46.070Z,56.70
2019-05-03T04:42:16.614Z,56.72
2019-05-03T04:44:45.828Z,56.73
2019-05-03T04:47:15.708Z,56.75
2019-05-03T04:49:46.207Z,56.79
2019-05-03T04:52:16.536Z,56.84
2019-05-03T04:54:49.588Z,56.82
2019-05-03T04:57:35.057Z,56.83
2019-05-03T04:59:47.894Z,56.85
2019-05-03T05:02:16.553Z,56.87
2019-05-03T05:04:46.255Z,56.89
2019-05-03T05:07:15.558Z,56.93
2019-05-03T05:09:45.609Z,56.95
2019-05-03T05:12:16.213Z,56.96
2019-05-03T05:14:45.870Z,57.00
2019-05-03T05:17:17.882Z,57.01
2019-05-03T05:20:02.062Z,57.02
2019-05-03T05:22:30.969Z,57.03
2019-05-03T05:25:01.238Z,57.01
2019-05-03T05:27:48.290Z,57.05
2019-05-03T05:30:10.480Z,57.07
2019-05-03T05:32:38.872Z,57.06
2019-05-03T05:35:07.677Z,57.09
2019-05-03T05:37:35.800Z,57.09
2019-05-03T05:40:06.260Z,57.12
2019-05-03T05:42:35.038Z,57.14
2019-05-03T05:45:05.100Z,57.14
2019-05-03T05:47:42.077Z,57.14
2019-05-03T05:50:15.326Z,57.18
2019-05-03T05:52:44.827Z,57.19
2019-05-03T05:55:37.943Z,57.19
2019-05-03T05:58:26.709Z,57.22
2019-05-03T06:00:59.729Z,57.22
2019-05-03T06:03:30.575Z,57.23
2019-05-03T06:06:01.061Z,57.25
2019-05-03T06:08:41.810Z,57.29
2019-05-03T06:11:37.758Z,57.30
2019-05-03T06:14:11.184Z,57.31
2019-05-03T06:17:02.618Z,57.30
2019-05-03T06:19:40.000Z,57.33
2019-05-03T06:22:25.542Z,57.30
2019-05-03T06:24:59.242Z,57.32
2019-05-03T06:27:38.014Z,57.32
2019-05-03T06:30:30.438Z,57.32
2019-05-03T06:32:58.558Z,57.34
2019-05-03T06:35:26.959Z,57.30
2019-05-03T06:37:55.001Z,57.31
2019-05-03T06:40:25.143Z,57.32
2019-05-03T06:42:55.644Z,57.32
2019-05-03T06:45:24.956Z,57.33
2019-05-03T06:47:55.155Z,57.35
2019-05-03T06:50:25.212Z,57.36
2019-05-03T06:52:54.778Z,57.38
2019-05-03T06:55:24.744Z,57.41
2019-05-03T06:57:54.590Z,57.36
2019-05-03T07:00:42.895Z,57.41
2019-05-03T07:03:29.156Z,57.43
2019-05-03T07:06:17.096Z,57.42
2019-05-03T07:09:11.440Z,57.38
2019-05-03T07:11:39.677Z,57.40
2019-05-03T07:14:08.539Z,57.41
2019-05-03T07:16:36.604Z,57.43
2019-05-03T07:19:04.973Z,57.45
2019-05-03T07:21:35.275Z,57.47
2019-05-03T07:24:03.092Z,57.45
2019-05-03T07:26:31.140Z,57.45
2019-05-03T07:28:59.219Z,57.44
2019-05-03T07:31:27.287Z,57.47
2019-05-03T07:33:55.376Z,57.43
2019-05-03T07:36:28.247Z,57.44
2019-05-03T07:38:56.615Z,57.46
2019-05-03T07:41:27.288Z,57.44
2019-05-03T07:43:55.865Z,57.47
2019-05-03T07:46:24.770Z,57.44
2019-05-03T07:48:54.799Z,57.46
2019-05-03T07:51:24.870Z,57.47
2019-05-03T07:53:55.374Z,57.50
2019-05-03T07:56:26.389Z,57.54
2019-05-03T07:59:00.571Z,57.54
2019-05-03T08:01:36.213Z,57.57
2019-05-03T08:04:05.572Z,57.58
2019-05-03T08:06:34.644Z,57.61
2019-05-03T08:09:06.387Z,57.63
2019-05-03T08:11:35.759Z,57.66
2019-05-03T08:14:05.407Z,57.68
2019-05-03T08:16:35.228Z,57.72
2019-05-03T08:19:05.200Z,57.71
2019-05-03T08:21:37.732Z,57.72
2019-05-03T08:24:04.541Z,57.69
2019-05-03T08:26:34.989Z,57.69
2019-05-03T08:29:15.172Z,57.71
2019-05-03T08:31:57.648Z,57.68
2019-05-03T08:34:45.401Z,57.65
2019-05-03T08:37:16.242Z,57.61
2019-05-03T08:39:44.775Z,57.60
2019-05-03T08:42:19.812Z,57.59
2019-05-03T08:44:47.824Z,57.62
2019-05-03T08:47:16.321Z,57.66
2019-05-03T08:49:45.032Z,57.81
2019-05-03T08:52:15.550Z,57.92
2019-05-03T08:54:46.222Z,58.01
2019-05-03T08:57:14.990Z,58.07
2019-05-03T08:59:44.583Z,58.16
2019-05-03T09:02:17.012Z,58.16
2019-05-03T09:04:45.989Z,58.07
2019-05-03T09:07:14.802Z,58.01
2019-05-03T09:10:01.816Z,57.95
2019-05-03T09:12:49.646Z,57.99
2019-05-03T09:15:21.583Z,58.01
2019-05-03T09:17:49.185Z,58.10
2019-05-03T09:20:17.230Z,58.18
2019-05-03T09:22:45.513Z,58.15
2019-05-03T09:25:15.492Z,58.05
2019-05-03T09:27:45.034Z,58.03
2019-05-03T09:30:14.776Z,57.96
2019-05-03T09:32:44.806Z,57.85
2019-05-03T09:35:29.034Z,57.73
2019-05-03T09:37:44.951Z,57.63
2019-05-03T09:40:15.070Z,57.54
2019-05-03T09:42:44.477Z,57.42
2019-05-03T09:45:15.242Z,57.24
2019-05-03T09:47:44.773Z,57.12
2019-05-03T09:50:15.459Z,56.98
2019-05-03T09:52:46.887Z,56.85
2019-05-03T09:55:38.846Z,56.82
2019-05-03T09:58:07.022Z,56.79
2019-05-03T10:00:35.095Z,56.76
2019-05-03T10:03:05.392Z,56.71
2019-05-03T10:05:35.112Z,56.69
2019-05-03T10:08:05.163Z,56.69
2019-05-03T10:10:51.537Z,56.66
2019-05-03T10:13:23.361Z,56.57
2019-05-03T10:15:50.663Z,56.29
2019-05-03T10:18:18.725Z,55.80
2019-05-03T10:20:46.752Z,55.34
2019-05-03T10:23:47.712Z,54.86
2019-05-03T10:26:15.739Z,54.42
2019-05-03T10:28:43.803Z,54.46
2019-05-03T10:31:12.161Z,54.59
2019-05-03T10:33:45.273Z,54.54
2019-05-03T10:36:15.448Z,54.53
2019-05-03T10:38:46.017Z,54.48
2019-05-03T10:41:14.464Z,54.40
2019-05-03T10:43:44.933Z,54.32
2019-05-03T10:46:12.823Z,54.22
2019-05-03T10:48:42.212Z,54.26
2019-05-03T10:51:10.261Z,54.24
2019-05-03T10:53:45.444Z,53.85
2019-05-03T10:56:22.674Z,53.39
2019-05-03T10:58:54.792Z,52.94
2019-05-03T11:01:30.737Z,52.75
2019-05-03T11:03:58.809Z,52.69
2019-05-03T11:06:26.866Z,52.85
2019-05-03T11:08:55.993Z,52.73
2019-05-03T11:11:25.875Z,52.23
2019-05-03T11:13:55.029Z,51.69
2019-05-03T11:16:23.137Z,51.26
2019-05-03T11:18:54.864Z,51.01
2019-05-03T11:21:28.830Z,50.85
2019-05-03T11:23:54.547Z,50.71
2019-05-03T11:26:25.257Z,50.62
2019-05-03T11:28:56.451Z,50.44
2019-05-03T11:31:44.453Z,50.41
2019-05-03T11:34:15.767Z,50.43
2019-05-03T11:36:51.491Z,50.23
2019-05-03T11:39:21.569Z,49.96
2019-05-03T11:41:53.558Z,49.60
2019-05-03T11:44:37.059Z,49.29
2019-05-03T11:47:06.017Z,49.14
2019-05-03T11:49:34.866Z,48.87
2019-05-03T11:52:03.360Z,48.55
2019-05-03T11:54:31.474Z,48.27
2019-05-03T11:57:01.549Z,47.81
2019-05-03T11:59:29.630Z,47.30
2019-05-03T12:02:35.048Z,46.63
2019-05-03T12:05:05.100Z,46.30
2019-05-03T12:07:39.774Z,45.91
2019-05-03T12:10:16.816Z,45.39
2019-05-03T12:12:37.742Z,44.86
2019-05-03T12:15:07.043Z,44.46
2019-05-03T12:17:50.856Z,44.29
2019-05-03T12:20:10.278Z,44.12
2019-05-03T12:22:40.312Z,43.96
2019-05-03T12:25:10.634Z,43.96
2019-05-03T12:27:39.449Z,43.82
2019-05-03T12:30:09.219Z,43.61
2019-05-03T12:32:37.671Z,43.34
2019-05-03T12:35:06.314Z,43.06
2019-05-03T12:37:35.426Z,42.73
2019-05-03T12:40:05.539Z,42.50
2019-05-03T12:42:35.649Z,42.34
2019-05-03T12:45:04.603Z,42.22
2019-05-03T12:47:34.683Z,42.23
2019-05-03T12:50:05.354Z,42.30
2019-05-03T12:52:36.651Z,42.34
2019-05-03T12:55:04.537Z,42.35
2019-05-03T12:57:34.452Z,42.47
2019-05-03T13:00:30.407Z,42.49
2019-05-03T13:03:05.527Z,42.82
2019-05-03T13:05:39.413Z,42.88
2019-05-03T13:08:37.272Z,42.48
2019-05-03T13:11:12.470Z,42.25
2019-05-03T13:13:40.502Z,42.08
2019-05-03T13:16:10.985Z,42.08
2019-05-03T13:18:39.270Z,42.07
2019-05-03T13:21:15.158Z,41.99
2019-05-03T13:23:45.200Z,41.77
2019-05-03T13:26:14.835Z,41.61
2019-05-03T13:28:45.146Z,41.40
2019-05-03T13:31:13.155Z,41.14
2019-05-03T13:33:41.199Z,41.37
2019-05-03T13:36:17.480Z,41.13
2019-05-03T13:38:45.594Z,40.84
2019-05-03T13:41:13.726Z,40.76
2019-05-03T13:43:41.849Z,40.57
2019-05-03T13:46:09.960Z,40.73
2019-05-03T13:48:45.248Z,40.79
2019-05-03T13:51:15.390Z,40.86
2019-05-03T13:53:43.534Z,40.80
2019-05-03T13:56:12.739Z,41.19
2019-05-03T13:58:40.801Z,41.30
2019-05-03T14:01:08.978Z,41.16
2019-05-03T14:03:38.119Z,41.00
2019-05-03T14:06:12.531Z,40.84
2019-05-03T14:08:41.049Z,40.65
2019-05-03T14:11:09.169Z,40.45
2019-05-03T14:13:37.468Z,40.24
2019-05-03T14:16:05.868Z,40.08
2019-05-03T14:18:35.213Z,39.97
2019-05-03T14:21:29.332Z,40.14
2019-05-03T14:24:09.745Z,40.21
2019-05-03T14:26:39.312Z,40.35
2019-05-03T14:29:07.495Z,40.42
2019-05-03T14:31:35.898Z,40.37
2019-05-03T14:34:05.959Z,40.22
2019-05-03T14:36:35.837Z,40.20
2019-05-03T14:39:10.052Z,40.03
2019-05-03T14:41:38.851Z,39.97
2019-05-03T14:44:14.556Z,39.97
2019-05-03T14:46:41.677Z,39.94
2019-05-03T14:49:09.741Z,39.83
2019-05-03T14:51:39.015Z,39.68
2019-05-03T14:54:09.289Z,39.54
2019-05-03T14:57:02.690Z,39.46
2019-05-03T14:59:48.944Z,39.44
2019-05-03T15:02:47.483Z,39.41
2019-05-03T15:05:14.903Z,39.31
2019-05-03T15:07:45.716Z,39.33
2019-05-03T15:10:15.035Z,39.32
2019-05-03T15:12:45.220Z,39.31
2019-05-03T15:15:14.668Z,39.38
2019-05-03T15:17:42.969Z,39.43
2019-05-03T15:20:11.318Z,39.43
2019-05-03T15:22:39.471Z,39.43
2019-05-03T15:25:07.861Z,39.50
2019-05-03T15:27:36.191Z,39.65
2019-05-03T15:30:05.304Z,39.83
2019-05-03T15:32:35.372Z,39.93
2019-05-03T15:35:04.737Z,40.00
2019-05-03T15:37:33.138Z,40.03
2019-05-03T15:40:01.297Z,40.04
2019-05-03T15:42:31.162Z,39.94
2019-05-03T15:45:17.283Z,39.85
2019-05-03T15:48:04.525Z,39.83
2019-05-03T15:50:33.054Z,39.94
2019-05-03T15:53:04.495Z,40.12
2019-05-03T15:55:32.922Z,40.19
2019-05-03T15:58:01.028Z,40.26
2019-05-03T16:00:29.059Z,40.33
2019-05-03T16:03:07.476Z,40.43
2019-05-03T16:05:28.489Z,40.55
2019-05-03T16:07:56.593Z,40.69
2019-05-03T16:10:25.029Z,40.80
2019-05-03T16:12:54.592Z,40.85
2019-05-03T16:15:24.586Z,40.83
2019-05-03T16:17:54.783Z,40.75
2019-05-03T16:20:24.965Z,40.68
2019-05-03T16:22:54.706Z,40.67
2019-05-03T16:25:24.906Z,40.61
2019-05-03T16:28:02.323Z,40.56
2019-05-03T16:30:42.405Z,40.47
2019-05-03T16:33:23.909Z,40.43
2019-05-03T16:35:40.427Z,40.42
2019-05-03T16:38:08.500Z,40.44
2019-05-03T16:40:36.548Z,40.45
2019-05-03T16:43:06.489Z,40.46
2019-05-03T16:45:35.012Z,40.49
2019-05-03T16:48:04.443Z,40.52
2019-05-03T16:50:34.569Z,40.56
2019-05-03T16:53:03.264Z,40.64
2019-05-03T16:55:31.510Z,40.69
2019-05-03T16:57:59.540Z,40.77
2019-05-03T17:00:27.638Z,40.91
2019-05-03T17:02:55.992Z,41.01
2019-05-03T17:05:42.431Z,41.10
2019-05-03T17:08:39.081Z,41.20
2019-05-03T17:11:09.499Z,41.34
2019-05-03T17:13:37.674Z,41.45
2019-05-03T17:16:07.047Z,41.57
2019-05-03T17:18:35.563Z,41.68
2019-05-03T17:21:04.560Z,41.84
2019-05-03T17:23:32.876Z,41.99
2019-05-03T17:26:01.230Z,42.21
2019-05-03T17:31:35.035Z,42.78
2019-05-03T17:34:02.490Z,42.97
2019-05-03T17:36:30.440Z,43.03
2019-05-03T17:39:04.445Z,43.11
2019-05-03T17:42:08.727Z,43.13
2019-05-03T17:44:40.203Z,43.18
2019-05-03T17:47:07.831Z,43.26
2019-05-03T17:49:35.729Z,43.35
2019-05-03T17:52:23.150Z,43.42
2019-05-03T17:55:01.104Z,43.49
2019-05-03T17:57:47.665Z,43.62
2019-05-03T18:00:44.443Z,43.77
2019-05-03T18:03:14.237Z,43.87
2019-05-03T18:05:48.323Z,43.99
2019-05-03T18:08:29.411Z,44.07
2019-05-03T18:11:06.867Z,44.17
2019-05-03T18:13:35.393Z,44.34
2019-05-03T18:16:04.745Z,44.42
2019-05-03T18:18:32.638Z,44.44
2019-05-03T18:21:02.377Z,44.51
2019-05-03T18:23:29.936Z,44.59
2019-05-03T18:26:00.641Z,44.60
2019-05-03T18:28:41.307Z,44.68
2019-05-03T18:31:09.129Z,44.74
2019-05-03T18:33:37.631Z,44.83
2019-05-03T18:36:08.319Z,44.97
2019-05-03T18:38:42.088Z,45.09
2019-05-03T18:41:28.672Z,45.15
2019-05-03T18:44:14.758Z,45.19
2019-05-03T18:46:47.188Z,45.22
2019-05-03T18:49:14.767Z,45.28
2019-05-03T18:51:47.690Z,45.35
2019-05-03T18:54:15.676Z,45.40
2019-05-03T18:56:50.959Z,45.44
2019-05-03T18:59:39.601Z,45.53
2019-05-03T19:02:08.142Z,45.58
2019-05-03T19:04:48.114Z,45.60
2019-05-03T19:07:40.424Z,45.67
2019-05-03T19:10:25.748Z,45.79
2019-05-03T19:13:04.563Z,45.84
2019-05-03T19:15:34.597Z,45.89
2019-05-03T19:18:07.710Z,45.94
2019-05-03T19:20:36.341Z,46.02
2019-05-03T19:23:15.391Z,46.07
2019-05-03T19:25:49.077Z,46.13
2019-05-03T19:28:24.973Z,46.19
2019-05-03T19:30:54.923Z,46.28
2019-05-03T19:33:23.301Z,46.33
2019-05-03T19:35:51.816Z,46.37
2019-05-03T19:38:20.047Z,46.44
2019-05-03T19:40:48.091Z,46.60
2019-05-03T19:43:16.183Z,46.69
2019-05-03T19:45:44.885Z,46.77
2019-05-03T19:48:22.928Z,46.84
2019-05-03T19:50:51.116Z,46.94
2019-05-03T19:53:39.016Z,47.00
2019-05-03T19:56:07.150Z,47.10
2019-05-03T19:58:36.010Z,47.20
2019-05-03T20:01:39.655Z,47.27
2019-05-03T20:04:32.998Z,47.38
2019-05-03T20:07:26.368Z,47.35
2019-05-03T20:09:56.567Z,47.43
2019-05-03T20:12:24.729Z,47.51
2019-05-03T20:14:54.669Z,47.62
2019-05-03T20:17:22.932Z,47.69
2019-05-03T20:19:51.342Z,47.73
2019-05-03T20:22:19.518Z,47.82
2019-05-03T20:24:47.699Z,47.85
2019-05-03T20:27:15.912Z,47.93
2019-05-03T20:29:46.153Z,47.99
2019-05-03T20:32:15.955Z,48.03
2019-05-03T20:34:44.558Z,48.09
2019-05-03T20:37:14.677Z,48.17
2019-05-03T20:39:42.850Z,48.26
2019-05-03T20:42:15.251Z,48.34
2019-05-03T20:44:57.700Z,48.47
2019-05-03T20:47:48.151Z,48.52
2019-05-03T20:50:17.503Z,48.53
2019-05-03T20:52:45.717Z,48.61
2019-05-03T20:55:15.561Z,48.65
2019-05-03T20:57:44.870Z,48.74
2019-05-03T21:00:17.232Z,48.82
2019-05-03T21:02:53.553Z,48.87
2019-05-03T21:05:26.632Z,48.93
2019-05-03T21:07:47.539Z,48.97
2019-05-03T21:10:16.124Z,49.03
2019-05-03T21:12:44.322Z,49.10
2019-05-03T21:15:22.274Z,49.14
2019-05-03T21:18:07.108Z,49.23
2019-05-03T21:20:51.191Z,49.30
2019-05-03T21:23:21.057Z,49.30
2019-05-03T21:26:21.911Z,49.33
2019-05-03T21:28:51.431Z,49.38
2019-05-03T21:31:19.660Z,49.39
2019-05-03T21:33:47.714Z,49.47
2019-05-03T21:36:15.811Z,49.58
2019-05-03T21:38:44.426Z,49.65
2019-05-03T21:41:13.202Z,49.70
2019-05-03T21:43:41.247Z,49.75
2019-05-03T21:46:19.619Z,49.81
2019-05-03T21:49:14.824Z,49.92
2019-05-03T21:51:44.894Z,49.92
2019-05-03T21:54:14.827Z,49.93
2019-05-03T21:56:44.700Z,49.94
2019-05-03T21:59:12.948Z,49.96
2019-05-03T22:01:45.583Z,49.97
2019-05-03T22:04:15.640Z,50.00
2019-05-03T22:06:44.386Z,50.03
2019-05-03T22:09:12.696Z,50.09
2019-05-03T22:11:44.562Z,50.11
2019-05-03T22:14:19.670Z,50.17
2019-05-03T22:17:14.906Z,50.22
2019-05-03T22:19:45.058Z,50.24
2019-05-03T22:22:34.149Z,50.25
2019-05-03T22:25:06.547Z,50.34
2019-05-03T22:27:38.686Z,50.42
2019-05-03T22:30:07.416Z,50.50
2019-05-03T22:32:35.598Z,50.55
2019-05-03T22:35:06.691Z,50.58
2019-05-03T22:37:35.454Z,50.66
2019-05-03T22:40:05.355Z,50.70
2019-05-03T22:42:34.735Z,50.78
2019-05-03T22:45:04.630Z,50.82
2019-05-03T22:47:32.944Z,50.86
2019-05-03T22:50:01.131Z,50.89
2019-05-03T22:52:29.313Z,50.95
2019-05-03T22:54:57.344Z,51.03
2019-05-03T22:57:25.479Z,51.05
2019-05-03T22:59:54.530Z,51.09
2019-05-03T23:02:24.739Z,51.14
2019-05-03T23:04:55.264Z,51.16
2019-05-03T23:07:24.856Z,51.16
2019-05-03T23:09:53.032Z,51.17
2019-05-03T23:12:21.296Z,51.21
2019-05-03T23:14:49.733Z,51.25
2019-05-03T23:17:17.815Z,51.33
2019-05-03T23:19:49.280Z,51.38
2019-05-03T23:22:26.693Z,51.40
2019-05-03T23:24:55.822Z,51.45
2019-05-03T23:27:25.939Z,51.49
2019-05-03T23:29:54.494Z,51.56
2019-05-03T23:32:24.501Z,51.62
2019-05-03T23:34:54.451Z,51.67
2019-05-03T23:37:23.122Z,51.69
2019-05-03T23:39:51.211Z,51.73
2019-05-03T23:42:19.284Z,51.77
2019-05-03T23:44:47.593Z,51.80
2019-05-03T23:47:25.200Z,51.84
2019-05-03T23:49:55.344Z,51.88
2019-05-03T23:52:35.036Z,51.94
2019-05-03T23:55:16.471Z,51.98
2019-05-03T23:57:44.712Z,51.99
